sensor_id;sensor_type;location;lat;lon;timestamp;pressure;altitude;pressure_sealevel;temperature;humidity
45793;BME280;31495;42.740;22.908;2023-05-15T00:00:53;93102.91;;;10.90;96.93
45793;BME280;31495;42.740;22.908;2023-05-15T00:01:52;93102.91;;;10.90;96.93
45793;BME280;31495;42.740;22.908;2023-05-15T00:02:52;93099.97;;;10.86;96.94
45793;BME280;31495;42.740;22.908;2023-05-15T00:03:51;93092.19;;;10.86;96.74
45793;BME280;31495;42.740;22.908;2023-05-15T00:04:50;93097.59;;;10.84;97.10
45793;BME280;31495;42.740;22.908;2023-05-15T00:05:49;93086.25;;;10.79;97.36
45793;BME280;31495;42.740;22.908;2023-05-15T00:06:49;93071.56;;;10.79;97.52
45793;BME280;31495;42.740;22.908;2023-05-15T00:07:48;93085.47;;;10.78;97.45
45793;BME280;31495;42.740;22.908;2023-05-15T00:08:47;93071.59;;;10.73;97.56
45793;BME280;31495;42.740;22.908;2023-05-15T00:09:47;93068.38;;;10.77;97.69
45793;BME280;31495;42.740;22.908;2023-05-15T00:10:46;93068.97;;;10.79;97.54
45793;BME280;31495;42.740;22.908;2023-05-15T00:11:45;93063.78;;;10.79;97.40
45793;BME280;31495;42.740;22.908;2023-05-15T00:12:44;93067.38;;;10.78;97.42
45793;BME280;31495;42.740;22.908;2023-05-15T00:13:44;93069.06;;;10.66;97.44
45793;BME280;31495;42.740;22.908;2023-05-15T00:14:43;93075.44;;;10.63;97.83
45793;BME280;31495;42.740;22.908;2023-05-15T00:15:43;93078.63;;;10.65;97.86
45793;BME280;31495;42.740;22.908;2023-05-15T00:16:42;93078.03;;;10.63;97.96
45793;BME280;31495;42.740;22.908;2023-05-15T00:17:41;93088.22;;;10.58;98.19
45793;BME280;31495;42.740;22.908;2023-05-15T00:18:41;93085.44;;;10.60;98.56
45793;BME280;31495;42.740;22.908;2023-05-15T00:19:40;93085.59;;;10.65;98.69
45793;BME280;31495;42.740;22.908;2023-05-15T00:20:39;93087.75;;;10.68;98.78
45793;BME280;31495;42.740;22.908;2023-05-15T00:21:39;93085.75;;;10.70;98.67
45793;BME280;31495;42.740;22.908;2023-05-15T00:22:38;93094.91;;;10.73;98.58
45793;BME280;31495;42.740;22.908;2023-05-15T00:23:38;93097.84;;;10.76;98.48
45793;BME280;31495;42.740;22.908;2023-05-15T00:24:38;93102.81;;;10.78;98.13
45793;BME280;31495;42.740;22.908;2023-05-15T00:25:37;93102.59;;;10.79;98.03
45793;BME280;31495;42.740;22.908;2023-05-15T00:26:36;93099.97;;;10.86;96.83
45793;BME280;31495;42.740;22.908;2023-05-15T00:27:36;93092.41;;;10.84;96.75
45793;BME280;31495;42.740;22.908;2023-05-15T00:28:36;93092.63;;;10.83;96.81
45793;BME280;31495;42.740;22.908;2023-05-15T00:29:35;93089.59;;;10.86;96.70
45793;BME280;31495;42.740;22.908;2023-05-15T00:30:34;93084.84;;;10.83;96.57
45793;BME280;31495;42.740;22.908;2023-05-15T00:31:33;93074.91;;;10.80;96.59
45793;BME280;31495;42.740;22.908;2023-05-15T00:32:33;93079.31;;;10.79;96.74
45793;BME280;31495;42.740;22.908;2023-05-15T00:33:32;93077.72;;;10.78;96.81
45793;BME280;31495;42.740;22.908;2023-05-15T00:34:31;93078.13;;;10.75;96.74
45793;BME280;31495;42.740;22.908;2023-05-15T00:35:31;93075.75;;;10.74;96.99
45793;BME280;31495;42.740;22.908;2023-05-15T00:36:30;93075.41;;;10.70;96.93
45793;BME280;31495;42.740;22.908;2023-05-15T00:37:29;93067.06;;;10.68;97.16
45793;BME280;31495;42.740;22.908;2023-05-15T00:38:29;93062.09;;;10.66;97.19
45793;BME280;31495;42.740;22.908;2023-05-15T00:39:29;93054.97;;;10.62;97.43
45793;BME280;31495;42.740;22.908;2023-05-15T00:40:28;93054.97;;;10.62;97.62
45793;BME280;31495;42.740;22.908;2023-05-15T00:41:28;93051.59;;;10.61;97.71
45793;BME280;31495;42.740;22.908;2023-05-15T00:42:30;93048.63;;;10.58;97.80
45793;BME280;31495;42.740;22.908;2023-05-15T00:43:29;93045.41;;;10.62;97.63
45793;BME280;31495;42.740;22.908;2023-05-15T00:44:32;93048.59;;;10.64;97.18
45793;BME280;31495;42.740;22.908;2023-05-15T00:45:32;93048.59;;;10.64;97.20
45793;BME280;31495;42.740;22.908;2023-05-15T00:46:32;93053.97;;;10.63;97.36
45793;BME280;31495;42.740;22.908;2023-05-15T00:47:33;93060.34;;;10.60;97.47
45793;BME280;31495;42.740;22.908;2023-05-15T00:48:33;93053.56;;;10.66;97.37
45793;BME280;31495;42.740;22.908;2023-05-15T00:49:32;93054.34;;;10.66;97.09
45793;BME280;31495;42.740;22.908;2023-05-15T00:50:33;93057.69;;;10.67;96.80
45793;BME280;31495;42.740;22.908;2023-05-15T00:51:32;93065.09;;;10.63;97.15
45793;BME280;31495;42.740;22.908;2023-05-15T00:52:33;93065.88;;;10.64;97.31
45793;BME280;31495;42.740;22.908;2023-05-15T00:53:32;93061.09;;;10.68;97.02
45793;BME280;31495;42.740;22.908;2023-05-15T00:54:32;93067.84;;;10.69;96.54
45793;BME280;31495;42.740;22.908;2023-05-15T00:55:32;93078.25;;;10.62;96.79
45793;BME280;31495;42.740;22.908;2023-05-15T00:56:31;93080.06;;;10.61;97.14
45793;BME280;31495;42.740;22.908;2023-05-15T00:57:32;93077.03;;;10.64;97.20
45793;BME280;31495;42.740;22.908;2023-05-15T00:58:32;93074.25;;;10.66;97.18
45793;BME280;31495;42.740;22.908;2023-05-15T00:59:31;93065.88;;;10.64;97.22
45793;BME280;31495;42.740;22.908;2023-05-15T01:00:31;93065.53;;;10.60;97.30
45793;BME280;31495;42.740;22.908;2023-05-15T01:01:31;93062.31;;;10.65;97.46
45793;BME280;31495;42.740;22.908;2023-05-15T01:02:32;93053.56;;;10.66;97.20
45793;BME280;31495;42.740;22.908;2023-05-15T01:03:31;93058.94;;;10.64;97.31
45793;BME280;31495;42.740;22.908;2023-05-15T01:04:31;93061.31;;;10.66;97.27
45793;BME280;31495;42.740;22.908;2023-05-15T01:05:30;93055.53;;;10.64;97.23
45793;BME280;31495;42.740;22.908;2023-05-15T01:06:30;93051.16;;;10.64;97.35
45793;BME280;31495;42.740;22.908;2023-05-15T01:07:29;93044.41;;;10.63;97.29
45793;BME280;31495;42.740;22.908;2023-05-15T01:08:38;93037.88;;;10.61;97.33
45793;BME280;31495;42.740;22.908;2023-05-15T01:09:41;93030.47;;;10.64;97.25
45793;BME280;31495;42.740;22.908;2023-05-15T01:10:41;93030.25;;;10.66;97.01
45793;BME280;31495;42.740;22.908;2023-05-15T01:11:41;93038.44;;;10.63;97.22
45793;BME280;31495;42.740;22.908;2023-05-15T01:12:41;93037.47;;;10.57;97.26
45793;BME280;31495;42.740;22.908;2023-05-15T01:13:42;93030.31;;;10.59;97.43
45793;BME280;31495;42.740;22.908;2023-05-15T01:14:42;93036.06;;;10.61;97.28
45793;BME280;31495;42.740;22.908;2023-05-15T01:15:42;93038.88;;;10.60;97.14
45793;BME280;31495;42.740;22.908;2023-05-15T01:16:41;93032.69;;;10.61;97.13
45793;BME280;31495;42.740;22.908;2023-05-15T01:17:40;93033.47;;;10.61;97.02
45793;BME280;31495;42.740;22.908;2023-05-15T01:18:40;93033.69;;;10.60;96.90
45793;BME280;31495;42.740;22.908;2023-05-15T01:19:39;93031.25;;;10.65;96.56
45793;BME280;31495;42.740;22.908;2023-05-15T01:20:46;93036.63;;;10.63;96.24
45793;BME280;31495;42.740;22.908;2023-05-15T01:23:11;93031.47;;;10.63;96.00
45793;BME280;31495;42.740;22.908;2023-05-15T01:27:47;93033.69;;;10.60;95.54
45793;BME280;31495;42.740;22.908;2023-05-15T01:28:50;93033.31;;;10.56;95.54
45793;BME280;31495;42.740;22.908;2023-05-15T01:29:57;93023.41;;;10.53;95.66
45793;BME280;31495;42.740;22.908;2023-05-15T01:30:58;93031.72;;;10.55;95.61
45793;BME280;31495;42.740;22.908;2023-05-15T01:32:03;93032.97;;;10.53;95.28
45793;BME280;31495;42.740;22.908;2023-05-15T01:33:04;93034.94;;;10.51;95.33
45793;BME280;31495;42.740;22.908;2023-05-15T01:34:06;93034.59;;;10.47;94.99
45793;BME280;31495;42.740;22.908;2023-05-15T01:35:27;93036.59;;;10.45;95.25
45793;BME280;31495;42.740;22.908;2023-05-15T01:36:47;93034.44;;;10.42;95.71
45793;BME280;31495;42.740;22.908;2023-05-15T01:38:33;93035.22;;;10.42;95.70
45793;BME280;31495;42.740;22.908;2023-05-15T01:39:12;93034.78;;;10.45;95.55
45793;BME280;31495;42.740;22.908;2023-05-15T01:40:14;93034.00;;;10.45;95.63
45793;BME280;31495;42.740;22.908;2023-05-15T01:42:17;93039.56;;;10.48;95.08
45793;BME280;31495;42.740;22.908;2023-05-15T01:43:18;93037.16;;;10.47;94.78
45793;BME280;31495;42.740;22.908;2023-05-15T01:44:29;93033.44;;;10.43;94.75
45793;BME280;31495;42.740;22.908;2023-05-15T01:45:30;93027.09;;;10.39;95.13
45793;BME280;31495;42.740;22.908;2023-05-15T01:46:30;93029.88;;;10.37;95.37
45793;BME280;31495;42.740;22.908;2023-05-15T01:47:35;93019.53;;;10.37;95.75
45793;BME280;31495;42.740;22.908;2023-05-15T01:48:36;93026.31;;;10.38;95.62
45793;BME280;31495;42.740;22.908;2023-05-15T01:49:36;93022.34;;;10.36;95.77
45793;BME280;31495;42.740;22.908;2023-05-15T01:50:36;93030.31;;;10.34;95.82
45793;BME280;31495;42.740;22.908;2023-05-15T01:51:38;93031.69;;;10.37;95.91
45793;BME280;31495;42.740;22.908;2023-05-15T01:52:38;93030.88;;;10.36;95.88
45793;BME280;31495;42.740;22.908;2023-05-15T01:53:38;93022.13;;;10.37;95.89
45793;BME280;31495;42.740;22.908;2023-05-15T01:54:38;93023.88;;;10.43;95.59
45793;BME280;31495;42.740;22.908;2023-05-15T01:55:38;93025.06;;;10.41;95.38
45793;BME280;31495;42.740;22.908;2023-05-15T01:56:39;93017.72;;;10.38;95.54
45793;BME280;31495;42.740;22.908;2023-05-15T01:57:40;93014.16;;;10.39;95.69
45793;BME280;31495;42.740;22.908;2023-05-15T01:58:40;93011.56;;;10.39;95.76
45793;BME280;31495;42.740;22.908;2023-05-15T01:59:40;93019.13;;;10.40;95.77
45793;BME280;31495;42.740;22.908;2023-05-15T02:00:40;93011.94;;;10.42;95.79
45793;BME280;31495;42.740;22.908;2023-05-15T02:01:40;93005.91;;;10.48;95.11
45793;BME280;31495;42.740;22.908;2023-05-15T02:02:40;93017.47;;;10.46;95.00
45793;BME280;31495;42.740;22.908;2023-05-15T02:03:39;93009.91;;;10.44;95.28
45793;BME280;31495;42.740;22.908;2023-05-15T02:04:40;93007.78;;;10.41;95.39
45793;BME280;31495;42.740;22.908;2023-05-15T02:05:40;93009.91;;;10.44;95.44
45793;BME280;31495;42.740;22.908;2023-05-15T02:06:39;93010.53;;;10.46;95.36
45793;BME280;31495;42.740;22.908;2023-05-15T02:07:40;93015.34;;;10.43;95.38
45793;BME280;31495;42.740;22.908;2023-05-15T02:08:39;93011.50;;;10.45;95.51
45793;BME280;31495;42.740;22.908;2023-05-15T02:09:40;93006.91;;;10.47;95.36
45793;BME280;31495;42.740;22.908;2023-05-15T02:10:40;93015.63;;;10.53;94.39
45793;BME280;31495;42.740;22.908;2023-05-15T02:11:40;93016.06;;;10.50;94.31
45793;BME280;31495;42.740;22.908;2023-05-15T02:12:40;93021.81;;;10.52;94.33
45793;BME280;31495;42.740;22.908;2023-05-15T02:13:39;93016.41;;;10.54;94.07
45793;BME280;31495;42.740;22.908;2023-05-15T02:14:40;93004.31;;;10.47;94.20
45793;BME280;31495;42.740;22.908;2023-05-15T02:15:39;93018.28;;;10.46;94.47
45793;BME280;31495;42.740;22.908;2023-05-15T02:16:38;93010.88;;;10.50;94.21
45793;BME280;31495;42.740;22.908;2023-05-15T02:17:38;93014.25;;;10.51;93.94
45793;BME280;31495;42.740;22.908;2023-05-15T02:18:37;93016.63;;;10.52;93.99
45793;BME280;31495;42.740;22.908;2023-05-15T02:19:36;93021.03;;;10.52;93.98
45793;BME280;31495;42.740;22.908;2023-05-15T02:20:36;93009.09;;;10.51;94.11
45793;BME280;31495;42.740;22.908;2023-05-15T02:21:35;93018.66;;;10.50;94.24
45793;BME280;31495;42.740;22.908;2023-05-15T02:22:34;93027.19;;;10.51;94.28
45793;BME280;31495;42.740;22.908;2023-05-15T02:23:34;93026.81;;;10.47;94.37
45793;BME280;31495;42.740;22.908;2023-05-15T02:24:33;93034.38;;;10.48;93.88
45793;BME280;31495;42.740;22.908;2023-05-15T02:27:47;93020.88;;;10.46;94.13
45793;BME280;31495;42.740;22.908;2023-05-15T02:28:53;93019.06;;;10.47;93.92
45793;BME280;31495;42.740;22.908;2023-05-15T02:31:18;93015.97;;;10.38;94.40
45793;BME280;31495;42.740;22.908;2023-05-15T02:33:50;93005.00;;;10.36;94.58
45793;BME280;31495;42.740;22.908;2023-05-15T02:36:01;93004.81;;;10.31;94.75
45793;BME280;31495;42.740;22.908;2023-05-15T02:37:02;93005.47;;;10.33;95.04
45793;BME280;31495;42.740;22.908;2023-05-15T02:38:04;93005.25;;;10.35;95.04
45793;BME280;31495;42.740;22.908;2023-05-15T02:39:06;93004.03;;;10.30;95.03
45793;BME280;31495;42.740;22.908;2023-05-15T02:40:09;93008.03;;;10.33;95.09
45793;BME280;31495;42.740;22.908;2023-05-15T02:41:10;92999.88;;;10.29;95.29
45793;BME280;31495;42.740;22.908;2023-05-15T02:42:11;93005.47;;;10.33;95.38
45793;BME280;31495;42.740;22.908;2023-05-15T02:43:10;92997.06;;;10.31;95.14
45793;BME280;31495;42.740;22.908;2023-05-15T02:44:11;92993.31;;;10.34;95.21
45793;BME280;31495;42.740;22.908;2023-05-15T02:45:11;92994.09;;;10.34;95.32
45793;BME280;31495;42.740;22.908;2023-05-15T02:46:10;92997.84;;;10.38;95.09
45793;BME280;31495;42.740;22.908;2023-05-15T02:47:11;92992.31;;;10.35;94.75
45793;BME280;31495;42.740;22.908;2023-05-15T02:48:10;92990.94;;;10.32;94.81
45793;BME280;31495;42.740;22.908;2023-05-15T02:49:10;92993.31;;;10.34;94.89
45793;BME280;31495;42.740;22.908;2023-05-15T02:50:10;92985.91;;;10.37;94.75
45793;BME280;31495;42.740;22.908;2023-05-15T02:51:10;92988.88;;;10.41;94.55
45793;BME280;31495;42.740;22.908;2023-05-15T02:52:09;92989.47;;;10.43;94.28
45793;BME280;31495;42.740;22.908;2023-05-15T02:53:09;92992.69;;;10.38;94.12
45793;BME280;31495;42.740;22.908;2023-05-15T02:54:08;92941.78;;;10.07;94.35
45793;BME280;31495;42.740;22.908;2023-05-15T02:55:08;92984.94;;;10.38;94.51
45793;BME280;31495;42.740;22.908;2023-05-15T02:56:08;92989.69;;;10.41;94.22
45793;BME280;31495;42.740;22.908;2023-05-15T02:57:07;92989.69;;;10.41;94.27
45793;BME280;31495;42.740;22.908;2023-05-15T02:58:07;92995.28;;;10.38;94.42
45793;BME280;31495;42.740;22.908;2023-05-15T02:59:07;92984.94;;;10.38;94.46
45793;BME280;31495;42.740;22.908;2023-05-15T03:00:06;92980.31;;;10.40;94.42
45793;BME280;31495;42.740;22.908;2023-05-15T03:01:08;92965.16;;;10.44;93.97
45793;BME280;31495;42.740;22.908;2023-05-15T03:02:07;92973.56;;;10.39;94.12
45793;BME280;31495;42.740;22.908;2023-05-15T03:03:07;92978.31;;;10.42;94.20
45793;BME280;31495;42.740;22.908;2023-05-15T03:04:06;92981.31;;;10.39;93.89
45793;BME280;31495;42.740;22.908;2023-05-15T03:05:05;92984.13;;;10.38;94.11
45793;BME280;31495;42.740;22.908;2023-05-15T03:06:05;92986.53;;;10.33;94.46
45793;BME280;31495;42.740;22.908;2023-05-15T03:07:04;92994.09;;;10.34;94.60
45793;BME280;31495;42.740;22.908;2023-05-15T03:08:04;93004.03;;;10.37;94.15
45793;BME280;31495;42.740;22.908;2023-05-15T03:09:03;93003.44;;;10.35;93.90
45793;BME280;31495;42.740;22.908;2023-05-15T03:10:02;93007.03;;;10.34;94.11
45793;BME280;31495;42.740;22.908;2023-05-15T03:11:02;93008.22;;;10.32;94.25
45793;BME280;31495;42.740;22.908;2023-05-15T03:12:01;93006.44;;;10.32;94.53
45793;BME280;31495;42.740;22.908;2023-05-15T03:13:01;93008.84;;;10.34;94.66
45793;BME280;31495;42.740;22.908;2023-05-15T03:14:00;93001.47;;;10.30;94.68
45793;BME280;31495;42.740;22.908;2023-05-15T03:14:59;92991.72;;;10.33;94.78
45793;BME280;31495;42.740;22.908;2023-05-15T03:15:59;92985.56;;;10.34;95.03
45793;BME280;31495;42.740;22.908;2023-05-15T03:16:59;92990.72;;;10.34;94.85
45793;BME280;31495;42.740;22.908;2023-05-15T03:17:58;92996.69;;;10.34;94.99
45793;BME280;31495;42.740;22.908;2023-05-15T03:18:58;92996.47;;;10.36;94.85
45793;BME280;31495;42.740;22.908;2023-05-15T03:19:57;92999.63;;;10.38;94.45
45793;BME280;31495;42.740;22.908;2023-05-15T03:20:56;92993.69;;;10.37;94.00
45793;BME280;31495;42.740;22.908;2023-05-15T03:21:56;92996.47;;;10.36;94.31
45793;BME280;31495;42.740;22.908;2023-05-15T03:22:55;92995.13;;;10.33;94.15
45793;BME280;31495;42.740;22.908;2023-05-15T03:23:54;92994.91;;;10.28;94.73
45793;BME280;31495;42.740;22.908;2023-05-15T03:24:54;92997.69;;;10.33;94.78
45793;BME280;31495;42.740;22.908;2023-05-15T03:25:54;92992.91;;;10.30;95.03
45793;BME280;31495;42.740;22.908;2023-05-15T03:26:53;92989.16;;;10.26;95.02
45793;BME280;31495;42.740;22.908;2023-05-15T03:27:52;92997.72;;;10.26;95.21
45793;BME280;31495;42.740;22.908;2023-05-15T03:28:52;92992.31;;;10.28;95.27
45793;BME280;31495;42.740;22.908;2023-05-15T03:29:51;92989.72;;;10.28;95.31
45793;BME280;31495;42.740;22.908;2023-05-15T03:30:50;92995.91;;;10.27;95.40
45793;BME280;31495;42.740;22.908;2023-05-15T03:31:49;92995.72;;;10.28;95.42
45793;BME280;31495;42.740;22.908;2023-05-15T03:32:49;92999.28;;;10.27;95.54
45793;BME280;31495;42.740;22.908;2023-05-15T03:33:48;93005.25;;;10.28;95.33
45793;BME280;31495;42.740;22.908;2023-05-15T03:34:48;93008.84;;;10.27;95.29
45793;BME280;31495;42.740;22.908;2023-05-15T03:35:47;93011.66;;;10.25;95.30
45793;BME280;31495;42.740;22.908;2023-05-15T03:36:47;93003.09;;;10.25;95.24
45793;BME280;31495;42.740;22.908;2023-05-15T03:37:46;93005.63;;;10.32;95.25
45793;BME280;31495;42.740;22.908;2023-05-15T03:38:45;93004.81;;;10.38;94.52
45793;BME280;31495;42.740;22.908;2023-05-15T03:39:44;93015.34;;;10.36;94.60
45793;BME280;31495;42.740;22.908;2023-05-15T03:40:44;93010.41;;;10.35;94.79
45793;BME280;31495;42.740;22.908;2023-05-15T03:41:43;93012.19;;;10.34;94.79
45793;BME280;31495;42.740;22.908;2023-05-15T03:42:42;93003.03;;;10.38;95.00
45793;BME280;31495;42.740;22.908;2023-05-15T03:43:42;93007.56;;;10.43;94.90
45793;BME280;31495;42.740;22.908;2023-05-15T03:44:41;93001.59;;;10.42;94.88
45793;BME280;31495;42.740;22.908;2023-05-15T03:45:40;93001.16;;;10.45;94.75
45793;BME280;31495;42.740;22.908;2023-05-15T03:46:40;93001.16;;;10.45;94.72
45793;BME280;31495;42.740;22.908;2023-05-15T03:47:39;93008.16;;;10.45;94.70
45793;BME280;31495;42.740;22.908;2023-05-15T03:48:40;93006.56;;;10.44;94.73
45793;BME280;31495;42.740;22.908;2023-05-15T03:49:40;93003.38;;;10.42;94.85
45793;BME280;31495;42.740;22.908;2023-05-15T03:50:40;92999.22;;;10.41;94.88
45793;BME280;31495;42.740;22.908;2023-05-15T03:51:39;93004.25;;;10.29;95.44
45793;BME280;31495;42.740;22.908;2023-05-15T03:52:38;92998.69;;;10.32;95.88
45793;BME280;31495;42.740;22.908;2023-05-15T03:53:37;92987.09;;;10.41;95.58
45793;BME280;31495;42.740;22.908;2023-05-15T03:54:37;92982.06;;;10.46;95.08
45793;BME280;31495;42.740;22.908;2023-05-15T03:55:36;92981.22;;;10.53;94.60
45793;BME280;31495;42.740;22.908;2023-05-15T03:56:36;92984.44;;;10.48;94.37
45793;BME280;31495;42.740;22.908;2023-05-15T03:57:35;92988.25;;;10.45;94.67
45793;BME280;31495;42.740;22.908;2023-05-15T03:58:34;92994.41;;;10.44;94.93
45793;BME280;31495;42.740;22.908;2023-05-15T03:59:34;92994.19;;;10.46;95.15
45793;BME280;31495;42.740;22.908;2023-05-15T04:00:33;92992.41;;;10.46;95.31
45793;BME280;31495;42.740;22.908;2023-05-15T04:01:33;92993.56;;;10.51;95.14
45793;BME280;31495;42.740;22.908;2023-05-15T04:02:32;92981.22;;;10.53;95.20
45793;BME280;31495;42.740;22.908;2023-05-15T04:03:31;92970.44;;;10.56;94.79
45793;BME280;31495;42.740;22.908;2023-05-15T04:04:31;92969.66;;;10.55;94.77
45793;BME280;31495;42.740;22.908;2023-05-15T04:05:30;92977.75;;;10.59;94.65
45793;BME280;31495;42.740;22.908;2023-05-15T04:06:29;92982.56;;;10.55;94.75
45793;BME280;31495;42.740;22.908;2023-05-15T04:07:31;92979.78;;;10.57;94.93
45793;BME280;31495;42.740;22.908;2023-05-15T04:08:30;92984.53;;;10.60;95.01
45793;BME280;31495;42.740;22.908;2023-05-15T04:09:30;92988.94;;;10.59;95.02
45793;BME280;31495;42.740;22.908;2023-05-15T04:10:29;92980.50;;;10.64;94.97
45793;BME280;31495;42.740;22.908;2023-05-15T04:11:30;92978.09;;;10.69;94.48
45793;BME280;31495;42.740;22.908;2023-05-15T04:12:33;92986.41;;;10.71;94.27
45793;BME280;31495;42.740;22.908;2023-05-15T04:13:33;92977.06;;;10.70;94.32
45793;BME280;31495;42.740;22.908;2023-05-15T04:14:32;92976.06;;;10.71;94.59
45793;BME280;31495;42.740;22.908;2023-05-15T04:15:31;92980.22;;;10.72;94.48
45793;BME280;31495;42.740;22.908;2023-05-15T04:16:31;92978.25;;;10.74;94.40
45793;BME280;31495;42.740;22.908;2023-05-15T04:17:30;92974.00;;;10.80;94.07
45793;BME280;31495;42.740;22.908;2023-05-15T04:18:29;92976.38;;;10.81;93.72
45793;BME280;31495;42.740;22.908;2023-05-15T04:19:29;92965.59;;;10.84;93.25
45793;BME280;31495;42.740;22.908;2023-05-15T04:20:28;92965.78;;;10.83;93.47
45793;BME280;31495;42.740;22.908;2023-05-15T04:21:27;92958.03;;;10.83;93.47
45793;BME280;31495;42.740;22.908;2023-05-15T04:22:27;92951.47;;;10.80;93.53
45793;BME280;31495;42.740;22.908;2023-05-15T04:23:26;92954.53;;;10.77;93.79
45793;BME280;31495;42.740;22.908;2023-05-15T04:24:25;92950.34;;;10.76;94.06
45793;BME280;31495;42.740;22.908;2023-05-15T04:25:25;92953.06;;;10.81;93.75
45793;BME280;31495;42.740;22.908;2023-05-15T04:26:24;92963.22;;;10.83;93.82
45793;BME280;31495;42.740;22.908;2023-05-15T04:27:24;92959.84;;;10.82;93.68
45793;BME280;31495;42.740;22.908;2023-05-15T04:28:24;92961.03;;;10.80;93.79
45793;BME280;31495;42.740;22.908;2023-05-15T04:29:23;92969.38;;;10.82;94.05
45793;BME280;31495;42.740;22.908;2023-05-15T04:30:23;92962.00;;;10.85;94.12
45793;BME280;31495;42.740;22.908;2023-05-15T04:31:22;92965.38;;;10.86;94.03
45793;BME280;31495;42.740;22.908;2023-05-15T04:32:22;92969.75;;;10.85;94.02
45793;BME280;31495;42.740;22.908;2023-05-15T04:33:21;92966.00;;;10.81;94.22
45793;BME280;31495;42.740;22.908;2023-05-15T04:34:21;92970.41;;;10.81;94.30
45793;BME280;31495;42.740;22.908;2023-05-15T04:35:20;92965.16;;;10.88;94.04
45793;BME280;31495;42.740;22.908;2023-05-15T04:36:19;92970.56;;;10.86;93.66
45793;BME280;31495;42.740;22.908;2023-05-15T04:37:19;92972.13;;;10.87;93.48
45793;BME280;31495;42.740;22.908;2023-05-15T04:38:18;92970.75;;;10.84;93.52
45793;BME280;31495;42.740;22.908;2023-05-15T04:39:17;92969.38;;;10.82;93.96
45793;BME280;31495;42.740;22.908;2023-05-15T04:40:17;92975.44;;;10.76;94.25
45793;BME280;31495;42.740;22.908;2023-05-15T04:41:16;92978.59;;;10.78;94.19
45793;BME280;31495;42.740;22.908;2023-05-15T04:42:16;92972.84;;;10.76;93.72
45793;BME280;31495;42.740;22.908;2023-05-15T04:43:15;92969.44;;;10.75;93.98
45793;BME280;31495;42.740;22.908;2023-05-15T04:44:14;92971.47;;;10.73;93.56
45793;BME280;31495;42.740;22.908;2023-05-15T04:45:14;92966.72;;;10.70;93.38
45793;BME280;31495;42.740;22.908;2023-05-15T04:46:13;92970.75;;;10.66;93.53
45793;BME280;31495;42.740;22.908;2023-05-15T04:47:12;92984.47;;;10.66;93.55
45793;BME280;31495;42.740;22.908;2023-05-15T04:48:12;92984.13;;;10.63;93.64
45793;BME280;31495;42.740;22.908;2023-05-15T04:49:11;92987.84;;;10.67;93.32
45793;BME280;31495;42.740;22.908;2023-05-15T04:50:10;92991.66;;;10.64;93.18
45793;BME280;31495;42.740;22.908;2023-05-15T04:51:09;92985.47;;;10.65;93.20
45793;BME280;31495;42.740;22.908;2023-05-15T04:52:09;92984.13;;;10.63;92.43
45793;BME280;31495;42.740;22.908;2023-05-15T04:53:09;92981.31;;;10.64;92.46
45793;BME280;31495;42.740;22.908;2023-05-15T04:54:08;92989.84;;;10.65;92.70
45793;BME280;31495;42.740;22.908;2023-05-15T04:55:08;92987.13;;;10.60;92.61
45793;BME280;31495;42.740;22.908;2023-05-15T04:56:07;92991.72;;;10.58;92.60
45793;BME280;31495;42.740;22.908;2023-05-15T04:57:07;92997.09;;;10.56;92.76
45793;BME280;31495;42.740;22.908;2023-05-15T04:58:06;92993.50;;;10.57;92.95
45793;BME280;31495;42.740;22.908;2023-05-15T04:59:05;92991.31;;;10.61;92.95
45793;BME280;31495;42.740;22.908;2023-05-15T05:00:05;92986.69;;;10.63;92.77
45793;BME280;31495;42.740;22.908;2023-05-15T05:01:10;92983.69;;;10.66;92.77
45793;BME280;31495;42.740;22.908;2023-05-15T05:02:09;92978.94;;;10.63;92.99
45793;BME280;31495;42.740;22.908;2023-05-15T05:03:08;92972.94;;;10.62;93.34
45793;BME280;31495;42.740;22.908;2023-05-15T05:04:07;92973.19;;;10.61;93.51
45793;BME280;31495;42.740;22.908;2023-05-15T05:05:07;92973.19;;;10.61;93.82
45793;BME280;31495;42.740;22.908;2023-05-15T05:06:07;92973.75;;;10.63;93.89
45793;BME280;31495;42.740;22.908;2023-05-15T05:07:06;92971.88;;;10.70;93.51
45793;BME280;31495;42.740;22.908;2023-05-15T05:08:06;92973.06;;;10.74;93.00
45793;BME280;31495;42.740;22.908;2023-05-15T05:09:05;92968.09;;;10.73;93.01
45793;BME280;31495;42.740;22.908;2023-05-15T05:10:04;92961.69;;;10.75;93.08
45793;BME280;31495;42.740;22.908;2023-05-15T05:11:04;92963.28;;;10.76;93.12
45793;BME280;31495;42.740;22.908;2023-05-15T05:12:03;92960.63;;;10.83;92.87
45793;BME280;31495;42.740;22.908;2023-05-15T05:13:03;92949.63;;;10.88;92.66
45793;BME280;31495;42.740;22.908;2023-05-15T05:14:02;92953.94;;;10.94;91.95
45793;BME280;31495;42.740;22.908;2023-05-15T05:15:02;92958.09;;;10.95;92.02
45793;BME280;31495;42.740;22.908;2023-05-15T05:16:01;92957.53;;;10.93;92.30
45793;BME280;31495;42.740;22.908;2023-05-15T05:17:01;92957.31;;;10.94;92.43
45793;BME280;31495;42.740;22.908;2023-05-15T05:18:00;92955.88;;;10.98;92.65
45793;BME280;31495;42.740;22.908;2023-05-15T05:19:00;92953.19;;;11.05;92.48
45793;BME280;31495;42.740;22.908;2023-05-15T05:19:59;92953.00;;;11.07;92.30
45793;BME280;31495;42.740;22.908;2023-05-15T05:20:59;92952.56;;;11.10;92.37
45793;BME280;31495;42.740;22.908;2023-05-15T05:21:59;92960.91;;;11.12;92.24
45793;BME280;31495;42.740;22.908;2023-05-15T05:23:03;92966.22;;;11.17;92.07
45793;BME280;31495;42.740;22.908;2023-05-15T05:24:02;92963.44;;;11.18;92.11
45793;BME280;31495;42.740;22.908;2023-05-15T05:25:01;92960.41;;;11.21;91.99
45793;BME280;31495;42.740;22.908;2023-05-15T05:26:01;92963.69;;;11.29;91.16
45793;BME280;31495;42.740;22.908;2023-05-15T05:27:01;92961.03;;;11.35;90.41